Onward, IN (46967)

10:13 AM EST on December 20, 2014 (GMT -0500)
Grissom Air Reserve Base | Change Station
CLOSE
Current Station
Airport
Location: Peru,
Elevation: 810 ft
Nearby Weather Stations

Elev 810 ft 40.65 °N, 86.15 °W | Updated 15 minutes ago

Overcast
Overcast
30 °F
Feels Like 30 °F
N
0
Wind Variable Wind from North

Today
High -- | Low -- °F
--% Chance of Precip.
Yesterday
High -- | Low -- °F
Precip. -- in
8:04 AM 5:20 PM
Waning Crescent, 3% visible
Pressure 30.33 in
Visibility 5.0 miles
Clouds Overcast 2800 ft
Dew Point 30 °F
Humidity 100%
Rainfall 0.00 in
Snow Depth Not available.
UV 0 out of 12
Pollen .10 out of 12
Air Quality Not available.
Flu Activity Not available.
METAR KGUS 201458Z AUTO 00000KT 5SM BR OVC028 M01/M01 A3029 RMK AO2 SLP270 T10141014 52004 TSNO

More Conditions Fewer Conditions

Pressure 30.33 in
Visibility 5.0 miles
Clouds Overcast 2800 ft
Dew Point 30 °F
Humidity 100%
Rainfall 0.00 in
Snow Depth Not available.
UV 0 out of 12
Pollen .10 out of 12
Air Quality Not available.
Flu Activity Not available.
METAR KGUS 201458Z AUTO 00000KT 5SM BR OVC028 M01/M01 A3029 RMK AO2 SLP270 T10141014 52004 TSNO

More Conditions Fewer Conditions

10-Day Weather Forecast

Almanac

Astronomy

Dec. 20, 2014 Rise Set
Actual Time
Civil Twilight
Nautical Twilight
Astronomical Twilight
Moon
Length of Visible Light
Length of Day
Tomorrow will be .
, % of the Moon is Illuminated

Today's Extremes

State Highs State Lows

Community

WunderPhotos

Upload Photos

1,779,198 photos uploaded!

WunderBlogs® & News

Nearby

Air Quality

  Air Quality AQ Index Pollutant
Not available.

Snow Depth

Station Depth Elevation

Earthquake Activity

City Distance Mag. Time & Date
Minimum magnitude displayed is 2.5.

Coastal Water Temperatures

Place Temperature

Nearby Weather Stations